sensor_id;sensor_type;location;lat;lon;timestamp;P1;durP1;ratioP1;P2;durP2;ratioP2
65665;SDS011;52365;47.464;18.976;2023-08-20T00:00:19;13.13;;;10.45;;
65665;SDS011;52365;47.464;18.976;2023-08-20T00:00:55;11.70;;;10.10;;
65665;SDS011;52365;47.464;18.976;2023-08-20T00:01:32;13.18;;;9.10;;
65665;SDS011;52365;47.464;18.976;2023-08-20T00:02:08;12.02;;;9.02;;
65665;SDS011;52365;47.464;18.976;2023-08-20T00:02:46;10.88;;;8.55;;
65665;SDS011;52365;47.464;18.976;2023-08-20T00:03:26;12.57;;;8.73;;
65665;SDS011;52365;47.464;18.976;2023-08-20T00:04:02;10.27;;;8.32;;
65665;SDS011;52365;47.464;18.976;2023-08-20T00:04:39;11.82;;;8.38;;
65665;SDS011;52365;47.464;18.976;2023-08-20T00:05:16;10.38;;;8.65;;
65665;SDS011;52365;47.464;18.976;2023-08-20T00:05:52;13.00;;;8.70;;
65665;SDS011;52365;47.464;18.976;2023-08-20T00:06:29;9.30;;;8.27;;
65665;SDS011;52365;47.464;18.976;2023-08-20T00:07:05;10.85;;;8.20;;
65665;SDS011;52365;47.464;18.976;2023-08-20T00:07:43;9.38;;;7.90;;
65665;SDS011;52365;47.464;18.976;2023-08-20T00:08:20;10.55;;;8.30;;
65665;SDS011;52365;47.464;18.976;2023-08-20T00:08:56;9.88;;;8.70;;
65665;SDS011;52365;47.464;18.976;2023-08-20T00:09:32;10.35;;;8.57;;
65665;SDS011;52365;47.464;18.976;2023-08-20T00:10:08;9.82;;;8.80;;
65665;SDS011;52365;47.464;18.976;2023-08-20T00:10:45;10.82;;;8.15;;
65665;SDS011;52365;47.464;18.976;2023-08-20T00:11:21;10.00;;;8.10;;
65665;SDS011;52365;47.464;18.976;2023-08-20T00:11:58;10.43;;;8.10;;
65665;SDS011;52365;47.464;18.976;2023-08-20T00:12:34;10.38;;;8.70;;
65665;SDS011;52365;47.464;18.976;2023-08-20T00:13:10;12.32;;;8.60;;
65665;SDS011;52365;47.464;18.976;2023-08-20T00:13:46;10.52;;;8.25;;
65665;SDS011;52365;47.464;18.976;2023-08-20T00:14:50;10.07;;;8.18;;
65665;SDS011;52365;47.464;18.976;2023-08-20T00:15:32;11.48;;;8.65;;
65665;SDS011;52365;47.464;18.976;2023-08-20T00:16:08;11.50;;;8.90;;
65665;SDS011;52365;47.464;18.976;2023-08-20T00:16:45;10.30;;;7.93;;
65665;SDS011;52365;47.464;18.976;2023-08-20T00:17:22;9.40;;;8.13;;
65665;SDS011;52365;47.464;18.976;2023-08-20T00:18:00;11.18;;;7.87;;
65665;SDS011;52365;47.464;18.976;2023-08-20T00:18:37;9.50;;;8.60;;
65665;SDS011;52365;47.464;18.976;2023-08-20T00:19:14;10.60;;;8.70;;
65665;SDS011;52365;47.464;18.976;2023-08-20T00:19:50;13.57;;;9.02;;
65665;SDS011;52365;47.464;18.976;2023-08-20T00:20:26;10.90;;;8.70;;
65665;SDS011;52365;47.464;18.976;2023-08-20T00:21:04;10.90;;;8.43;;
65665;SDS011;52365;47.464;18.976;2023-08-20T00:21:42;10.60;;;8.50;;
65665;SDS011;52365;47.464;18.976;2023-08-20T00:22:21;10.32;;;8.60;;
65665;SDS011;52365;47.464;18.976;2023-08-20T00:22:58;10.18;;;8.48;;
65665;SDS011;52365;47.464;18.976;2023-08-20T00:23:35;11.07;;;8.30;;
65665;SDS011;52365;47.464;18.976;2023-08-20T00:24:12;10.25;;;8.13;;
65665;SDS011;52365;47.464;18.976;2023-08-20T00:24:48;10.75;;;8.50;;
65665;SDS011;52365;47.464;18.976;2023-08-20T00:25:25;10.95;;;8.73;;
65665;SDS011;52365;47.464;18.976;2023-08-20T00:26:02;11.20;;;8.07;;
65665;SDS011;52365;47.464;18.976;2023-08-20T00:26:38;12.32;;;9.00;;
65665;SDS011;52365;47.464;18.976;2023-08-20T00:27:14;9.65;;;7.97;;
65665;SDS011;52365;47.464;18.976;2023-08-20T00:27:50;10.65;;;8.95;;
65665;SDS011;52365;47.464;18.976;2023-08-20T00:28:26;13.20;;;10.02;;
65665;SDS011;52365;47.464;18.976;2023-08-20T00:29:02;12.57;;;10.88;;
65665;SDS011;52365;47.464;18.976;2023-08-20T00:29:39;16.77;;;14.57;;
65665;SDS011;52365;47.464;18.976;2023-08-20T00:30:15;27.13;;;21.48;;
65665;SDS011;52365;47.464;18.976;2023-08-20T00:30:51;21.67;;;18.30;;
65665;SDS011;52365;47.464;18.976;2023-08-20T00:31:27;19.52;;;15.95;;
65665;SDS011;52365;47.464;18.976;2023-08-20T00:32:03;14.65;;;11.93;;
65665;SDS011;52365;47.464;18.976;2023-08-20T00:32:39;14.52;;;10.63;;
65665;SDS011;52365;47.464;18.976;2023-08-20T00:33:16;11.80;;;9.25;;
65665;SDS011;52365;47.464;18.976;2023-08-20T00:33:53;10.80;;;9.70;;
65665;SDS011;52365;47.464;18.976;2023-08-20T00:34:29;11.45;;;8.90;;
65665;SDS011;52365;47.464;18.976;2023-08-20T00:35:05;11.15;;;8.52;;
65665;SDS011;52365;47.464;18.976;2023-08-20T00:35:43;12.88;;;8.90;;
65665;SDS011;52365;47.464;18.976;2023-08-20T00:36:19;10.30;;;8.32;;
65665;SDS011;52365;47.464;18.976;2023-08-20T00:36:55;10.00;;;8.75;;
65665;SDS011;52365;47.464;18.976;2023-08-20T00:37:31;10.63;;;8.98;;
65665;SDS011;52365;47.464;18.976;2023-08-20T00:38:07;10.70;;;9.05;;
65665;SDS011;52365;47.464;18.976;2023-08-20T00:38:43;10.98;;;8.50;;
65665;SDS011;52365;47.464;18.976;2023-08-20T00:39:19;11.43;;;8.95;;
65665;SDS011;52365;47.464;18.976;2023-08-20T00:39:55;12.63;;;9.18;;
65665;SDS011;52365;47.464;18.976;2023-08-20T00:40:32;12.00;;;9.10;;
65665;SDS011;52365;47.464;18.976;2023-08-20T00:41:08;10.23;;;9.18;;
65665;SDS011;52365;47.464;18.976;2023-08-20T00:41:44;11.18;;;8.60;;
65665;SDS011;52365;47.464;18.976;2023-08-20T00:42:21;10.77;;;9.07;;
65665;SDS011;52365;47.464;18.976;2023-08-20T00:42:57;12.73;;;9.07;;
65665;SDS011;52365;47.464;18.976;2023-08-20T00:43:33;9.35;;;8.35;;
65665;SDS011;52365;47.464;18.976;2023-08-20T00:44:09;9.60;;;8.60;;
65665;SDS011;52365;47.464;18.976;2023-08-20T00:44:45;11.60;;;8.55;;
65665;SDS011;52365;47.464;18.976;2023-08-20T00:45:22;11.25;;;8.15;;
65665;SDS011;52365;47.464;18.976;2023-08-20T00:45:58;11.07;;;8.82;;
65665;SDS011;52365;47.464;18.976;2023-08-20T00:46:35;9.35;;;8.30;;
65665;SDS011;52365;47.464;18.976;2023-08-20T00:47:11;10.43;;;8.70;;
65665;SDS011;52365;47.464;18.976;2023-08-20T00:47:48;10.55;;;8.82;;
65665;SDS011;52365;47.464;18.976;2023-08-20T00:48:25;9.98;;;8.20;;
65665;SDS011;52365;47.464;18.976;2023-08-20T00:49:02;9.35;;;8.20;;
65665;SDS011;52365;47.464;18.976;2023-08-20T00:49:38;11.82;;;9.05;;
65665;SDS011;52365;47.464;18.976;2023-08-20T00:50:15;9.35;;;8.20;;
65665;SDS011;52365;47.464;18.976;2023-08-20T00:50:52;11.43;;;8.38;;
65665;SDS011;52365;47.464;18.976;2023-08-20T00:51:28;9.25;;;8.00;;
65665;SDS011;52365;47.464;18.976;2023-08-20T00:52:04;10.93;;;8.32;;
65665;SDS011;52365;47.464;18.976;2023-08-20T00:52:43;10.18;;;8.30;;
65665;SDS011;52365;47.464;18.976;2023-08-20T00:53:21;10.55;;;8.27;;
65665;SDS011;52365;47.464;18.976;2023-08-20T00:53:57;8.98;;;8.07;;
65665;SDS011;52365;47.464;18.976;2023-08-20T00:54:33;10.40;;;8.55;;
65665;SDS011;52365;47.464;18.976;2023-08-20T00:55:10;10.98;;;8.77;;
65665;SDS011;52365;47.464;18.976;2023-08-20T00:55:48;9.52;;;8.35;;
65665;SDS011;52365;47.464;18.976;2023-08-20T00:56:24;10.27;;;8.18;;
65665;SDS011;52365;47.464;18.976;2023-08-20T00:57:01;9.68;;;8.57;;
65665;SDS011;52365;47.464;18.976;2023-08-20T00:57:38;9.63;;;8.40;;
65665;SDS011;52365;47.464;18.976;2023-08-20T00:58:15;12.50;;;8.63;;
65665;SDS011;52365;47.464;18.976;2023-08-20T00:58:52;9.15;;;8.25;;
65665;SDS011;52365;47.464;18.976;2023-08-20T00:59:30;9.40;;;8.40;;
65665;SDS011;52365;47.464;18.976;2023-08-20T01:00:08;8.85;;;7.95;;
65665;SDS011;52365;47.464;18.976;2023-08-20T01:00:46;9.95;;;8.10;;
65665;SDS011;52365;47.464;18.976;2023-08-20T01:01:22;10.20;;;8.48;;
65665;SDS011;52365;47.464;18.976;2023-08-20T01:01:58;9.40;;;8.38;;
65665;SDS011;52365;47.464;18.976;2023-08-20T01:02:38;10.38;;;8.45;;
65665;SDS011;52365;47.464;18.976;2023-08-20T01:03:15;9.85;;;8.80;;
65665;SDS011;52365;47.464;18.976;2023-08-20T01:03:51;11.30;;;8.57;;
65665;SDS011;52365;47.464;18.976;2023-08-20T01:04:28;10.13;;;8.57;;
65665;SDS011;52365;47.464;18.976;2023-08-20T01:05:09;10.65;;;8.70;;
65665;SDS011;52365;47.464;18.976;2023-08-20T01:05:49;9.63;;;8.45;;
65665;SDS011;52365;47.464;18.976;2023-08-20T01:08:38;9.85;;;8.85;;
65665;SDS011;52365;47.464;18.976;2023-08-20T01:10:08;11.52;;;8.75;;
65665;SDS011;52365;47.464;18.976;2023-08-20T01:11:33;9.80;;;8.32;;
65665;SDS011;52365;47.464;18.976;2023-08-20T01:12:16;9.35;;;8.38;;
65665;SDS011;52365;47.464;18.976;2023-08-20T01:12:53;9.57;;;8.32;;
65665;SDS011;52365;47.464;18.976;2023-08-20T01:13:30;9.40;;;8.40;;
65665;SDS011;52365;47.464;18.976;2023-08-20T01:14:15;10.63;;;8.50;;
65665;SDS011;52365;47.464;18.976;2023-08-20T01:14:52;9.32;;;8.32;;
65665;SDS011;52365;47.464;18.976;2023-08-20T01:15:28;12.43;;;8.43;;
65665;SDS011;52365;47.464;18.976;2023-08-20T01:16:04;9.57;;;8.68;;
65665;SDS011;52365;47.464;18.976;2023-08-20T01:16:40;9.80;;;8.30;;
65665;SDS011;52365;47.464;18.976;2023-08-20T01:17:16;9.07;;;8.18;;
65665;SDS011;52365;47.464;18.976;2023-08-20T01:17:52;10.15;;;8.35;;
65665;SDS011;52365;47.464;18.976;2023-08-20T01:18:28;9.50;;;8.07;;
65665;SDS011;52365;47.464;18.976;2023-08-20T01:19:05;8.95;;;8.05;;
65665;SDS011;52365;47.464;18.976;2023-08-20T01:19:42;10.77;;;8.23;;
65665;SDS011;52365;47.464;18.976;2023-08-20T01:20:18;10.18;;;8.50;;
65665;SDS011;52365;47.464;18.976;2023-08-20T01:20:58;8.85;;;7.93;;
65665;SDS011;52365;47.464;18.976;2023-08-20T01:23:06;9.90;;;8.70;;
65665;SDS011;52365;47.464;18.976;2023-08-20T01:24:06;10.13;;;8.40;;
65665;SDS011;52365;47.464;18.976;2023-08-20T01:28:25;8.90;;;8.00;;
65665;SDS011;52365;47.464;18.976;2023-08-20T01:29:03;8.98;;;8.07;;
65665;SDS011;52365;47.464;18.976;2023-08-20T01:29:40;11.75;;;8.30;;
65665;SDS011;52365;47.464;18.976;2023-08-20T01:30:17;9.60;;;8.18;;
65665;SDS011;52365;47.464;18.976;2023-08-20T01:30:56;11.30;;;8.38;;
65665;SDS011;52365;47.464;18.976;2023-08-20T01:31:34;10.77;;;8.98;;
65665;SDS011;52365;47.464;18.976;2023-08-20T01:32:10;10.27;;;8.50;;
65665;SDS011;52365;47.464;18.976;2023-08-20T01:32:49;9.77;;;8.60;;
65665;SDS011;52365;47.464;18.976;2023-08-20T01:33:26;9.23;;;8.00;;
65665;SDS011;52365;47.464;18.976;2023-08-20T01:34:03;9.32;;;7.82;;
65665;SDS011;52365;47.464;18.976;2023-08-20T01:34:39;9.52;;;8.20;;
65665;SDS011;52365;47.464;18.976;2023-08-20T01:35:16;8.45;;;7.65;;
65665;SDS011;52365;47.464;18.976;2023-08-20T01:35:53;10.18;;;8.43;;
65665;SDS011;52365;47.464;18.976;2023-08-20T01:36:30;10.05;;;9.02;;
65665;SDS011;52365;47.464;18.976;2023-08-20T01:37:06;9.98;;;8.02;;
65665;SDS011;52365;47.464;18.976;2023-08-20T01:37:42;10.23;;;7.80;;
65665;SDS011;52365;47.464;18.976;2023-08-20T01:38:19;9.32;;;8.38;;
65665;SDS011;52365;47.464;18.976;2023-08-20T01:38:55;8.82;;;7.87;;
65665;SDS011;52365;47.464;18.976;2023-08-20T01:39:32;10.98;;;8.88;;
65665;SDS011;52365;47.464;18.976;2023-08-20T01:40:08;15.43;;;13.20;;
65665;SDS011;52365;47.464;18.976;2023-08-20T01:40:46;23.42;;;19.00;;
65665;SDS011;52365;47.464;18.976;2023-08-20T01:41:23;29.35;;;23.55;;
65665;SDS011;52365;47.464;18.976;2023-08-20T01:41:59;30.50;;;24.70;;
65665;SDS011;52365;47.464;18.976;2023-08-20T01:42:35;28.70;;;22.58;;
65665;SDS011;52365;47.464;18.976;2023-08-20T01:43:11;26.15;;;20.65;;
65665;SDS011;52365;47.464;18.976;2023-08-20T01:43:47;19.08;;;15.43;;
65665;SDS011;52365;47.464;18.976;2023-08-20T01:44:23;17.08;;;14.38;;
65665;SDS011;52365;47.464;18.976;2023-08-20T01:44:59;15.55;;;13.30;;
65665;SDS011;52365;47.464;18.976;2023-08-20T01:45:35;13.20;;;10.88;;
65665;SDS011;52365;47.464;18.976;2023-08-20T01:46:11;13.98;;;10.82;;
65665;SDS011;52365;47.464;18.976;2023-08-20T01:46:48;10.70;;;9.45;;
65665;SDS011;52365;47.464;18.976;2023-08-20T01:47:24;12.10;;;9.38;;
65665;SDS011;52365;47.464;18.976;2023-08-20T01:48:00;11.32;;;9.00;;
65665;SDS011;52365;47.464;18.976;2023-08-20T01:48:36;10.90;;;8.82;;
65665;SDS011;52365;47.464;18.976;2023-08-20T01:49:12;10.18;;;8.43;;
65665;SDS011;52365;47.464;18.976;2023-08-20T01:49:48;11.50;;;8.30;;
65665;SDS011;52365;47.464;18.976;2023-08-20T01:50:24;10.00;;;8.70;;
65665;SDS011;52365;47.464;18.976;2023-08-20T01:51:01;9.32;;;8.32;;
65665;SDS011;52365;47.464;18.976;2023-08-20T01:51:37;9.63;;;8.30;;
65665;SDS011;52365;47.464;18.976;2023-08-20T01:52:13;9.30;;;8.38;;
65665;SDS011;52365;47.464;18.976;2023-08-20T01:52:49;9.73;;;8.45;;
65665;SDS011;52365;47.464;18.976;2023-08-20T01:53:25;10.30;;;8.23;;
65665;SDS011;52365;47.464;18.976;2023-08-20T01:54:01;10.05;;;8.73;;
65665;SDS011;52365;47.464;18.976;2023-08-20T01:54:37;9.85;;;8.85;;
65665;SDS011;52365;47.464;18.976;2023-08-20T01:55:13;9.60;;;8.63;;
65665;SDS011;52365;47.464;18.976;2023-08-20T01:55:50;10.23;;;8.68;;
65665;SDS011;52365;47.464;18.976;2023-08-20T01:56:26;10.70;;;8.85;;
65665;SDS011;52365;47.464;18.976;2023-08-20T01:57:02;9.98;;;8.65;;
65665;SDS011;52365;47.464;18.976;2023-08-20T01:57:38;9.45;;;8.48;;
65665;SDS011;52365;47.464;18.976;2023-08-20T01:58:14;9.05;;;8.07;;
65665;SDS011;52365;47.464;18.976;2023-08-20T01:58:50;9.82;;;8.20;;
65665;SDS011;52365;47.464;18.976;2023-08-20T01:59:26;10.38;;;8.57;;
65665;SDS011;52365;47.464;18.976;2023-08-20T02:00:03;12.02;;;8.88;;
65665;SDS011;52365;47.464;18.976;2023-08-20T02:00:44;10.13;;;8.55;;
65665;SDS011;52365;47.464;18.976;2023-08-20T02:01:21;9.32;;;8.40;;
65665;SDS011;52365;47.464;18.976;2023-08-20T02:01:57;10.70;;;8.32;;
65665;SDS011;52365;47.464;18.976;2023-08-20T02:02:33;9.00;;;8.10;;
65665;SDS011;52365;47.464;18.976;2023-08-20T02:03:10;8.40;;;7.57;;
65665;SDS011;52365;47.464;18.976;2023-08-20T02:03:46;10.40;;;8.30;;
65665;SDS011;52365;47.464;18.976;2023-08-20T02:04:22;11.40;;;9.13;;
65665;SDS011;52365;47.464;18.976;2023-08-20T02:04:58;9.27;;;8.38;;
65665;SDS011;52365;47.464;18.976;2023-08-20T02:05:34;9.43;;;8.50;;
65665;SDS011;52365;47.464;18.976;2023-08-20T02:06:10;9.98;;;8.50;;
65665;SDS011;52365;47.464;18.976;2023-08-20T02:06:46;9.77;;;8.77;;
65665;SDS011;52365;47.464;18.976;2023-08-20T02:07:22;11.23;;;8.93;;
65665;SDS011;52365;47.464;18.976;2023-08-20T02:07:58;10.60;;;8.63;;
65665;SDS011;52365;47.464;18.976;2023-08-20T02:08:34;10.27;;;8.18;;
65665;SDS011;52365;47.464;18.976;2023-08-20T02:09:10;10.30;;;8.88;;
65665;SDS011;52365;47.464;18.976;2023-08-20T02:09:46;10.52;;;8.93;;
65665;SDS011;52365;47.464;18.976;2023-08-20T02:10:22;9.65;;;8.50;;
65665;SDS011;52365;47.464;18.976;2023-08-20T02:11:02;9.40;;;8.38;;
65665;SDS011;52365;47.464;18.976;2023-08-20T02:11:38;9.95;;;8.90;;
65665;SDS011;52365;47.464;18.976;2023-08-20T02:12:15;10.88;;;8.98;;
65665;SDS011;52365;47.464;18.976;2023-08-20T02:12:51;10.15;;;9.13;;
65665;SDS011;52365;47.464;18.976;2023-08-20T02:13:27;9.73;;;8.73;;
65665;SDS011;52365;47.464;18.976;2023-08-20T02:14:03;11.82;;;9.10;;
65665;SDS011;52365;47.464;18.976;2023-08-20T02:14:39;10.77;;;8.93;;
65665;SDS011;52365;47.464;18.976;2023-08-20T02:15:16;10.02;;;8.98;;
65665;SDS011;52365;47.464;18.976;2023-08-20T02:16:01;11.10;;;8.80;;
65665;SDS011;52365;47.464;18.976;2023-08-20T02:16:39;13.83;;;8.97;;
65665;SDS011;52365;47.464;18.976;2023-08-20T02:17:15;10.68;;;8.70;;
65665;SDS011;52365;47.464;18.976;2023-08-20T02:17:51;10.38;;;8.43;;
65665;SDS011;52365;47.464;18.976;2023-08-20T02:18:28;9.52;;;8.48;;
65665;SDS011;52365;47.464;18.976;2023-08-20T02:19:04;10.70;;;9.05;;
65665;SDS011;52365;47.464;18.976;2023-08-20T02:19:42;10.30;;;9.00;;
65665;SDS011;52365;47.464;18.976;2023-08-20T02:20:18;9.70;;;8.70;;
65665;SDS011;52365;47.464;18.976;2023-08-20T02:20:54;9.93;;;8.63;;
65665;SDS011;52365;47.464;18.976;2023-08-20T02:21:30;12.98;;;9.30;;
65665;SDS011;52365;47.464;18.976;2023-08-20T02:22:06;10.38;;;8.88;;
65665;SDS011;52365;47.464;18.976;2023-08-20T02:22:42;10.27;;;9.13;;
65665;SDS011;52365;47.464;18.976;2023-08-20T02:23:19;9.48;;;8.48;;
65665;SDS011;52365;47.464;18.976;2023-08-20T02:23:55;11.75;;;9.13;;
65665;SDS011;52365;47.464;18.976;2023-08-20T02:24:31;9.40;;;8.40;;
65665;SDS011;52365;47.464;18.976;2023-08-20T02:25:07;9.70;;;8.30;;
65665;SDS011;52365;47.464;18.976;2023-08-20T02:25:43;9.93;;;8.68;;
65665;SDS011;52365;47.464;18.976;2023-08-20T02:26:20;9.30;;;8.30;;
65665;SDS011;52365;47.464;18.976;2023-08-20T02:26:56;9.70;;;8.70;;
65665;SDS011;52365;47.464;18.976;2023-08-20T02:27:32;10.60;;;8.30;;
65665;SDS011;52365;47.464;18.976;2023-08-20T02:28:08;10.20;;;8.63;;
65665;SDS011;52365;47.464;18.976;2023-08-20T02:28:44;10.32;;;8.45;;
65665;SDS011;52365;47.464;18.976;2023-08-20T02:29:20;9.20;;;8.18;;
65665;SDS011;52365;47.464;18.976;2023-08-20T02:29:56;11.23;;;8.70;;
65665;SDS011;52365;47.464;18.976;2023-08-20T02:30:37;10.32;;;8.98;;
65665;SDS011;52365;47.464;18.976;2023-08-20T02:31:17;9.88;;;8.85;;
65665;SDS011;52365;47.464;18.976;2023-08-20T02:31:53;11.38;;;8.82;;
65665;SDS011;52365;47.464;18.976;2023-08-20T02:32:29;9.50;;;8.60;;
65665;SDS011;52365;47.464;18.976;2023-08-20T02:33:07;9.82;;;8.68;;
65665;SDS011;52365;47.464;18.976;2023-08-20T02:33:43;10.23;;;8.82;;
65665;SDS011;52365;47.464;18.976;2023-08-20T02:34:19;10.65;;;8.80;;
65665;SDS011;52365;47.464;18.976;2023-08-20T02:34:55;9.65;;;8.50;;
65665;SDS011;52365;47.464;18.976;2023-08-20T02:35:31;11.10;;;8.90;;
65665;SDS011;52365;47.464;18.976;2023-08-20T02:36:07;10.57;;;8.68;;
65665;SDS011;52365;47.464;18.976;2023-08-20T02:36:43;11.73;;;9.05;;
65665;SDS011;52365;47.464;18.976;2023-08-20T02:37:19;12.27;;;8.57;;
65665;SDS011;52365;47.464;18.976;2023-08-20T02:37:56;10.38;;;8.88;;
65665;SDS011;52365;47.464;18.976;2023-08-20T02:38:32;9.93;;;8.82;;
65665;SDS011;52365;47.464;18.976;2023-08-20T02:39:08;9.70;;;8.70;;
65665;SDS011;52365;47.464;18.976;2023-08-20T02:39:44;11.55;;;9.52;;
65665;SDS011;52365;47.464;18.976;2023-08-20T02:40:20;10.50;;;8.60;;
65665;SDS011;52365;47.464;18.976;2023-08-20T02:40:56;9.75;;;8.75;;
65665;SDS011;52365;47.464;18.976;2023-08-20T02:41:32;9.70;;;8.70;;
65665;SDS011;52365;47.464;18.976;2023-08-20T02:42:09;9.48;;;8.48;;
65665;SDS011;52365;47.464;18.976;2023-08-20T02:42:45;9.70;;;8.60;;
65665;SDS011;52365;47.464;18.976;2023-08-20T02:43:21;9.73;;;8.70;;
65665;SDS011;52365;47.464;18.976;2023-08-20T02:43:57;9.73;;;8.77;;
65665;SDS011;52365;47.464;18.976;2023-08-20T02:44:33;12.37;;;9.18;;
65665;SDS011;52365;47.464;18.976;2023-08-20T02:45:09;10.57;;;9.27;;
65665;SDS011;52365;47.464;18.976;2023-08-20T02:45:45;10.55;;;9.45;;
65665;SDS011;52365;47.464;18.976;2023-08-20T02:46:21;11.18;;;8.57;;
65665;SDS011;52365;47.464;18.976;2023-08-20T02:46:57;11.40;;;8.73;;
65665;SDS011;52365;47.464;18.976;2023-08-20T02:47:33;12.10;;;9.13;;
65665;SDS011;52365;47.464;18.976;2023-08-20T02:48:10;10.02;;;8.88;;
65665;SDS011;52365;47.464;18.976;2023-08-20T02:48:46;10.50;;;9.40;;
65665;SDS011;52365;47.464;18.976;2023-08-20T02:49:22;10.25;;;9.20;;
65665;SDS011;52365;47.464;18.976;2023-08-20T02:49:58;10.15;;;9.05;;
65665;SDS011;52365;47.464;18.976;2023-08-20T02:50:34;10.35;;;8.70;;
65665;SDS011;52365;47.464;18.976;2023-08-20T02:51:10;9.98;;;8.85;;
65665;SDS011;52365;47.464;18.976;2023-08-20T02:51:46;9.90;;;8.90;;
65665;SDS011;52365;47.464;18.976;2023-08-20T02:52:22;9.70;;;8.70;;
65665;SDS011;52365;47.464;18.976;2023-08-20T02:52:58;11.60;;;9.50;;
65665;SDS011;52365;47.464;18.976;2023-08-20T02:53:34;10.38;;;9.13;;
65665;SDS011;52365;47.464;18.976;2023-08-20T02:54:10;10.25;;;9.20;;
65665;SDS011;52365;47.464;18.976;2023-08-20T02:54:46;9.95;;;8.90;;
65665;SDS011;52365;47.464;18.976;2023-08-20T02:55:22;11.10;;;9.18;;
65665;SDS011;52365;47.464;18.976;2023-08-20T02:55:58;10.55;;;9.10;;
65665;SDS011;52365;47.464;18.976;2023-08-20T02:56:34;11.20;;;9.55;;
65665;SDS011;52365;47.464;18.976;2023-08-20T02:57:10;10.32;;;9.23;;
65665;SDS011;52365;47.464;18.976;2023-08-20T02:57:47;9.65;;;8.65;;
65665;SDS011;52365;47.464;18.976;2023-08-20T02:58:23;11.57;;;9.33;;
65665;SDS011;52365;47.464;18.976;2023-08-20T02:58:59;9.68;;;8.68;;
65665;SDS011;52365;47.464;18.976;2023-08-20T02:59:35;9.95;;;8.88;;
65665;SDS011;52365;47.464;18.976;2023-08-20T03:00:11;11.50;;;9.00;;
65665;SDS011;52365;47.464;18.976;2023-08-20T03:00:49;10.85;;;8.90;;
65665;SDS011;52365;47.464;18.976;2023-08-20T03:01:25;9.50;;;8.50;;
65665;SDS011;52365;47.464;18.976;2023-08-20T03:02:02;9.60;;;8.60;;
65665;SDS011;52365;47.464;18.976;2023-08-20T03:02:39;9.45;;;8.55;;
65665;SDS011;52365;47.464;18.976;2023-08-20T03:03:17;10.13;;;9.13;;
65665;SDS011;52365;47.464;18.976;2023-08-20T03:03:53;13.40;;;9.38;;
65665;SDS011;52365;47.464;18.976;2023-08-20T03:04:29;10.02;;;9.00;;
65665;SDS011;52365;47.464;18.976;2023-08-20T03:05:05;10.38;;;8.60;;
65665;SDS011;52365;47.464;18.976;2023-08-20T03:05:41;9.95;;;8.95;;
65665;SDS011;52365;47.464;18.976;2023-08-20T03:06:18;10.20;;;9.07;;
65665;SDS011;52365;47.464;18.976;2023-08-20T03:06:54;9.60;;;8.63;;
65665;SDS011;52365;47.464;18.976;2023-08-20T03:07:30;10.57;;;8.57;;
65665;SDS011;52365;47.464;18.976;2023-08-20T03:08:06;11.55;;;9.50;;
65665;SDS011;52365;47.464;18.976;2023-08-20T03:08:42;10.48;;;9.38;;
65665;SDS011;52365;47.464;18.976;2023-08-20T03:09:19;10.45;;;9.10;;
65665;SDS011;52365;47.464;18.976;2023-08-20T03:09:55;12.37;;;8.82;;
65665;SDS011;52365;47.464;18.976;2023-08-20T03:10:31;9.88;;;8.80;;
65665;SDS011;52365;47.464;18.976;2023-08-20T03:11:08;11.32;;;9.15;;
65665;SDS011;52365;47.464;18.976;2023-08-20T03:11:44;9.65;;;8.65;;
65665;SDS011;52365;47.464;18.976;2023-08-20T03:12:20;10.10;;;9.00;;
65665;SDS011;52365;47.464;18.976;2023-08-20T03:12:56;12.40;;;8.93;;
65665;SDS011;52365;47.464;18.976;2023-08-20T03:13:32;10.02;;;8.93;;
65665;SDS011;52365;47.464;18.976;2023-08-20T03:14:08;10.23;;;8.77;;
65665;SDS011;52365;47.464;18.976;2023-08-20T03:14:44;10.02;;;8.98;;
65665;SDS011;52365;47.464;18.976;2023-08-20T03:15:20;13.88;;;9.00;;
65665;SDS011;52365;47.464;18.976;2023-08-20T03:15:56;10.55;;;8.90;;
65665;SDS011;52365;47.464;18.976;2023-08-20T03:16:32;12.80;;;8.90;;
65665;SDS011;52365;47.464;18.976;2023-08-20T03:17:08;11.65;;;9.23;;
65665;SDS011;52365;47.464;18.976;2023-08-20T03:17:44;11.93;;;9.90;;
65665;SDS011;52365;47.464;18.976;2023-08-20T03:18:21;12.20;;;9.48;;
65665;SDS011;52365;47.464;18.976;2023-08-20T03:18:57;11.75;;;9.95;;
65665;SDS011;52365;47.464;18.976;2023-08-20T03:19:34;11.38;;;9.52;;
65665;SDS011;52365;47.464;18.976;2023-08-20T03:20:13;11.70;;;9.50;;
65665;SDS011;52365;47.464;18.976;2023-08-20T03:20:49;15.13;;;9.48;;
65665;SDS011;52365;47.464;18.976;2023-08-20T03:21:25;10.65;;;9.48;;
65665;SDS011;52365;47.464;18.976;2023-08-20T03:22:01;13.25;;;9.75;;
65665;SDS011;52365;47.464;18.976;2023-08-20T03:22:37;13.57;;;9.88;;
65665;SDS011;52365;47.464;18.976;2023-08-20T03:23:14;12.95;;;9.32;;
65665;SDS011;52365;47.464;18.976;2023-08-20T03:23:50;11.43;;;9.60;;
65665;SDS011;52365;47.464;18.976;2023-08-20T03:24:26;10.45;;;9.30;;
65665;SDS011;52365;47.464;18.976;2023-08-20T03:25:02;11.23;;;9.25;;
65665;SDS011;52365;47.464;18.976;2023-08-20T03:25:38;11.27;;;9.20;;
65665;SDS011;52365;47.464;18.976;2023-08-20T03:26:14;9.98;;;8.98;;
65665;SDS011;52365;47.464;18.976;2023-08-20T03:26:50;11.02;;;9.02;;
65665;SDS011;52365;47.464;18.976;2023-08-20T03:27:26;11.52;;;8.85;;
65665;SDS011;52365;47.464;18.976;2023-08-20T03:28:02;12.65;;;9.57;;
65665;SDS011;52365;47.464;18.976;2023-08-20T03:28:39;10.20;;;8.52;;
65665;SDS011;52365;47.464;18.976;2023-08-20T03:29:15;13.07;;;9.13;;
65665;SDS011;52365;47.464;18.976;2023-08-20T03:29:51;11.45;;;8.80;;
65665;SDS011;52365;47.464;18.976;2023-08-20T03:30:28;10.45;;;8.88;;
65665;SDS011;52365;47.464;18.976;2023-08-20T03:31:04;11.70;;;9.48;;
65665;SDS011;52365;47.464;18.976;2023-08-20T03:31:40;10.75;;;9.00;;
65665;SDS011;52365;47.464;18.976;2023-08-20T03:32:16;9.73;;;8.73;;
65665;SDS011;52365;47.464;18.976;2023-08-20T03:32:53;9.82;;;8.82;;
65665;SDS011;52365;47.464;18.976;2023-08-20T03:33:29;11.05;;;9.00;;
65665;SDS011;52365;47.464;18.976;2023-08-20T03:34:05;10.25;;;8.70;;
65665;SDS011;52365;47.464;18.976;2023-08-20T03:34:41;10.18;;;8.60;;
65665;SDS011;52365;47.464;18.976;2023-08-20T03:35:18;12.50;;;8.95;;
65665;SDS011;52365;47.464;18.976;2023-08-20T03:35:54;10.70;;;8.77;;
65665;SDS011;52365;47.464;18.976;2023-08-20T03:36:30;10.10;;;8.65;;
65665;SDS011;52365;47.464;18.976;2023-08-20T03:37:06;10.65;;;8.35;;
65665;SDS011;52365;47.464;18.976;2023-08-20T03:37:42;12.50;;;8.70;;
65665;SDS011;52365;47.464;18.976;2023-08-20T03:38:18;13.32;;;8.75;;
65665;SDS011;52365;47.464;18.976;2023-08-20T03:38:54;10.65;;;8.88;;
65665;SDS011;52365;47.464;18.976;2023-08-20T03:39:30;9.85;;;8.23;;
65665;SDS011;52365;47.464;18.976;2023-08-20T03:40:07;11.65;;;8.90;;
65665;SDS011;52365;47.464;18.976;2023-08-20T03:40:43;11.68;;;8.90;;
65665;SDS011;52365;47.464;18.976;2023-08-20T03:41:20;10.88;;;8.48;;
65665;SDS011;52365;47.464;18.976;2023-08-20T03:41:57;10.40;;;8.93;;
65665;SDS011;52365;47.464;18.976;2023-08-20T03:42:33;10.98;;;9.10;;
65665;SDS011;52365;47.464;18.976;2023-08-20T03:43:09;12.30;;;9.30;;
65665;SDS011;52365;47.464;18.976;2023-08-20T03:43:45;11.95;;;8.93;;
65665;SDS011;52365;47.464;18.976;2023-08-20T03:44:21;10.23;;;8.98;;
65665;SDS011;52365;47.464;18.976;2023-08-20T03:44:57;10.60;;;9.40;;